Terminal Aerodrome Forecast
Issued by NWS Twin Cities, MN

Home | Current Version | Previous Version | Text Only | Print | Product List | Glossary Off
Versions: 1 2 3 4 5 6 7 8 9 10 11 12 13 14 15

000
FTUS43 KMPX 200520
TAFEAU
TAF
KEAU 200520Z 2006/2106 13009KT P6SM VCTS SCT060CB BKN250
      TEMPO 2006/2009 2SM TSRA BR BKN025CB OVC100
     FM200900 VRB03KT 3SM BR BKN015
     FM201400 34008KT P6SM SCT250
     FM210100 VRB02KT P6SM SCT250=

USA.gov is the U.S. government's official web portal to all federal, state and local government web resources and services.